»·PEaware :: N292AW KSBD-KBUR

N292AW :: KSBD-KBUR

FLIGHT INFORMATION

Flight Status: Arrived
Operator: Privately registered:
United States
More flights under this callsign
Pilot: Alex L. (10007)
Aircraft: CIRRUS VISIONJET
(SF50)
More flights by this aircraft type
Origin: KSBD San Bernardino Intl
United States
Destination: KBUR Bob Hope-Burbank
United States
More flights between these airports :: More routes between these airports
Route: PDZ V197 POM V264 ITSME V186 VNY
File this flight plan on PilotEdge
Remarks:
Altitude:
(Current/Filed)
8,000ft
Speed:
(Current/Filed)
200kts
Departed: 07-May-19 06:13 PM
Arrived: 07-May-19 06:34 PM
Distance/Time
Traveled:
56nm/0:21
Distance/Time
To Go:
Arrived

Flight Plot

Page will automatically refresh every two minutes.


Map Options




Map Legend


Flown Route
Filed Route
Departure Airport
Arrival Airport
Navaid (VOR, NDB)
Fix

Horizontal Profiles

Position Reports

Time Latitude Longitude Heading Altitude Ground
Speed
07-May-19 17:51 34.105413 -117.242380 149 1106ft 0kts
07-May-19 17:52 34.105413 -117.242380 149 1106ft 0kts
07-May-19 17:53 34.105413 -117.242380 149 1106ft 0kts
07-May-19 17:54 34.105413 -117.242380 149 1106ft 0kts
07-May-19 17:55 34.105413 -117.242380 149 1106ft 0kts
07-May-19 17:56 34.105070 -117.243049 236 1104ft 0kts
07-May-19 17:57 34.105070 -117.243049 236 1104ft 0kts
07-May-19 17:58 34.105070 -117.243049 236 1104ft 0kts
07-May-19 17:59 34.105070 -117.243049 236 1104ft 0kts
07-May-19 18:00 34.105070 -117.243049 236 1104ft 0kts
07-May-19 18:01 34.105070 -117.243049 236 1104ft 0kts
07-May-19 18:02 34.105070 -117.243049 236 1104ft 0kts
07-May-19 18:03 34.105070 -117.243049 236 1104ft 0kts
07-May-19 18:04 34.105070 -117.243049 236 1104ft 0kts
07-May-19 18:05 34.105070 -117.243049 236 1104ft 0kts
07-May-19 18:06 34.105070 -117.243049 236 1104ft 0kts
07-May-19 18:07 34.104035 -117.242360 131 1105ft 8kts
07-May-19 18:08 34.101002 -117.239637 150 1109ft 24kts
07-May-19 18:09 34.097261 -117.238616 210 1109ft 13kts
07-May-19 18:10 34.094549 -117.243871 252 1096ft 20kts
07-May-19 18:11 34.092524 -117.250454 250 1083ft 12kts
07-May-19 18:12 34.091379 -117.248120 70 1087ft 62kts
07-May-19 18:13 34.104643 -117.196184 91 2380ft 221kts
07-May-19 18:14 34.064037 -117.167335 228 4242ft 202kts
07-May-19 18:15 34.039594 -117.223142 243 6132ft 185kts
07-May-19 18:16 34.015778 -117.281994 244 7988ft 207kts
07-May-19 18:17 33.987706 -117.353470 244 8055ft 246kts
07-May-19 18:18 33.958502 -117.427896 244 8054ft 244kts
07-May-19 18:19 33.929540 -117.501552 244 8066ft 243kts
07-May-19 18:20 33.947896 -117.575414 304 8055ft 243kts
07-May-19 18:21 33.983864 -117.634908 307 8054ft 243kts
07-May-19 18:22 34.017698 -117.689371 306 8055ft 243kts
07-May-19 18:23 34.058573 -117.755150 306 8054ft 243kts
07-May-19 18:24 34.077621 -117.832076 269 8055ft 250kts
07-May-19 18:25 34.076427 -117.916830 268 8055ft 253kts
07-May-19 18:26 34.075576 -118.001946 279 8042ft 255kts
07-May-19 18:27 34.096971 -118.076297 290 8051ft 216kts
07-May-19 18:28 34.117388 -118.142950 290 6983ft 220kts
07-May-19 18:29 34.138145 -118.210865 290 5188ft 211kts
07-May-19 18:30 34.181184 -118.255180 322 3763ft 220kts
07-May-19 18:31 34.215766 -118.308721 295 2900ft 179kts
07-May-19 18:33 34.222479 -118.348540 255 1610ft 93kts
07-May-19 18:34 34.206729 -118.358918 170 744ft 35kts
07-May-19 18:35 34.205452 -118.359727 168 740ft 6kts
07-May-19 18:36 34.202038 -118.358756 168 728ft 16kts
07-May-19 18:37 34.199686 -118.358734 261 719ft 0kts
07-May-19 18:38 34.199746 -118.359369 92 721ft 0kts
07-May-19 18:39 34.199746 -118.359369 92 721ft 0kts
07-May-19 18:40 34.199746 -118.359369 92 721ft 0kts
07-May-19 18:41 34.199746 -118.359369 92 721ft 0kts
07-May-19 18:42 34.199746 -118.359369 92 721ft 0kts
07-May-19 18:43 34.199746 -118.359369 92 721ft 0kts
07-May-19 18:44 34.199746 -118.359369 92 721ft 0kts
07-May-19 18:45 34.199746 -118.359369 92 721ft 0kts
07-May-19 18:46 34.199748 -118.359351 80 721ft 3kts
07-May-19 18:47 34.203031 -118.359009 348 733ft 3kts
07-May-19 18:48 34.208384 -118.360524 347 753ft 24kts
07-May-19 18:49 34.211940 -118.361359 32 769ft 0kts

Navigation Log

Ident Type
Flight plan parsing failed, navigation log unavailable